sensor_id;sensor_type;location;lat;lon;timestamp;P1;durP1;ratioP1;P2;durP2;ratioP2
78995;SDS011;68401;47.192;-1.552;2023-05-10T00:00:57;11.80;;;2.78;;
78995;SDS011;68401;47.192;-1.552;2023-05-10T00:03:22;12.90;;;2.63;;
78995;SDS011;68401;47.192;-1.552;2023-05-10T00:05:48;9.45;;;2.25;;
78995;SDS011;68401;47.192;-1.552;2023-05-10T00:08:13;7.78;;;2.75;;
78995;SDS011;68401;47.192;-1.552;2023-05-10T00:10:38;8.88;;;2.92;;
78995;SDS011;68401;47.192;-1.552;2023-05-10T00:13:05;13.85;;;4.38;;
78995;SDS011;68401;47.192;-1.552;2023-05-10T00:15:30;12.15;;;2.45;;
78995;SDS011;68401;47.192;-1.552;2023-05-10T00:17:56;11.98;;;2.60;;
78995;SDS011;68401;47.192;-1.552;2023-05-10T00:20:22;9.57;;;2.45;;
78995;SDS011;68401;47.192;-1.552;2023-05-10T00:22:47;11.30;;;2.60;;
78995;SDS011;68401;47.192;-1.552;2023-05-10T00:25:13;17.55;;;4.57;;
78995;SDS011;68401;47.192;-1.552;2023-05-10T00:27:38;8.07;;;2.33;;
78995;SDS011;68401;47.192;-1.552;2023-05-10T00:30:04;16.15;;;2.78;;
78995;SDS011;68401;47.192;-1.552;2023-05-10T00:32:29;13.20;;;2.30;;
78995;SDS011;68401;47.192;-1.552;2023-05-10T00:34:55;10.13;;;2.97;;
78995;SDS011;68401;47.192;-1.552;2023-05-10T00:37:21;13.95;;;3.65;;
78995;SDS011;68401;47.192;-1.552;2023-05-10T00:39:46;15.00;;;2.92;;
78995;SDS011;68401;47.192;-1.552;2023-05-10T00:42:11;8.73;;;2.53;;
78995;SDS011;68401;47.192;-1.552;2023-05-10T00:44:37;16.77;;;2.75;;
78995;SDS011;68401;47.192;-1.552;2023-05-10T00:47:02;11.27;;;2.42;;
78995;SDS011;68401;47.192;-1.552;2023-05-10T00:49:28;9.70;;;2.20;;
78995;SDS011;68401;47.192;-1.552;2023-05-10T00:51:54;12.65;;;2.95;;
78995;SDS011;68401;47.192;-1.552;2023-05-10T00:54:19;13.18;;;3.00;;
78995;SDS011;68401;47.192;-1.552;2023-05-10T00:56:45;7.75;;;2.83;;
78995;SDS011;68401;47.192;-1.552;2023-05-10T00:59:14;9.65;;;2.47;;
78995;SDS011;68401;47.192;-1.552;2023-05-10T01:01:41;8.93;;;2.13;;
78995;SDS011;68401;47.192;-1.552;2023-05-10T01:04:07;12.73;;;2.20;;
78995;SDS011;68401;47.192;-1.552;2023-05-10T01:06:34;10.32;;;2.83;;
78995;SDS011;68401;47.192;-1.552;2023-05-10T01:09:00;16.10;;;3.72;;
78995;SDS011;68401;47.192;-1.552;2023-05-10T01:11:26;12.75;;;2.95;;
78995;SDS011;68401;47.192;-1.552;2023-05-10T01:13:52;13.38;;;3.25;;
78995;SDS011;68401;47.192;-1.552;2023-05-10T01:16:22;9.30;;;2.58;;
78995;SDS011;68401;47.192;-1.552;2023-05-10T01:18:48;11.30;;;2.67;;
78995;SDS011;68401;47.192;-1.552;2023-05-10T01:21:17;16.15;;;3.33;;
78995;SDS011;68401;47.192;-1.552;2023-05-10T01:27:43;10.85;;;3.30;;
78995;SDS011;68401;47.192;-1.552;2023-05-10T01:36:03;13.98;;;2.47;;
78995;SDS011;68401;47.192;-1.552;2023-05-10T01:41:16;17.13;;;3.40;;
78995;SDS011;68401;47.192;-1.552;2023-05-10T01:46:16;13.25;;;2.83;;
78995;SDS011;68401;47.192;-1.552;2023-05-10T01:48:47;17.92;;;3.28;;
78995;SDS011;68401;47.192;-1.552;2023-05-10T01:51:17;17.45;;;3.42;;
78995;SDS011;68401;47.192;-1.552;2023-05-10T01:53:46;15.52;;;3.03;;
78995;SDS011;68401;47.192;-1.552;2023-05-10T01:56:13;10.85;;;2.97;;
78995;SDS011;68401;47.192;-1.552;2023-05-10T01:58:39;10.38;;;2.50;;
78995;SDS011;68401;47.192;-1.552;2023-05-10T02:01:05;9.98;;;2.83;;
78995;SDS011;68401;47.192;-1.552;2023-05-10T02:03:32;15.85;;;2.65;;
78995;SDS011;68401;47.192;-1.552;2023-05-10T02:05:59;14.55;;;2.80;;
78995;SDS011;68401;47.192;-1.552;2023-05-10T02:08:24;12.43;;;3.10;;
78995;SDS011;68401;47.192;-1.552;2023-05-10T02:10:52;7.13;;;3.25;;
78995;SDS011;68401;47.192;-1.552;2023-05-10T02:13:19;10.10;;;2.45;;
78995;SDS011;68401;47.192;-1.552;2023-05-10T02:15:46;18.20;;;3.75;;
78995;SDS011;68401;47.192;-1.552;2023-05-10T02:18:13;11.25;;;2.95;;
78995;SDS011;68401;47.192;-1.552;2023-05-10T02:20:39;16.30;;;3.30;;
78995;SDS011;68401;47.192;-1.552;2023-05-10T02:23:04;19.05;;;3.38;;
78995;SDS011;68401;47.192;-1.552;2023-05-10T02:25:31;12.75;;;3.50;;
78995;SDS011;68401;47.192;-1.552;2023-05-10T02:27:57;11.40;;;4.00;;
78995;SDS011;68401;47.192;-1.552;2023-05-10T02:30:25;17.77;;;5.40;;
78995;SDS011;68401;47.192;-1.552;2023-05-10T02:32:51;18.38;;;4.50;;
78995;SDS011;68401;47.192;-1.552;2023-05-10T02:35:17;11.35;;;2.50;;
78995;SDS011;68401;47.192;-1.552;2023-05-10T02:37:44;15.38;;;3.53;;
78995;SDS011;68401;47.192;-1.552;2023-05-10T02:40:10;14.07;;;4.28;;
78995;SDS011;68401;47.192;-1.552;2023-05-10T02:42:37;10.88;;;2.83;;
78995;SDS011;68401;47.192;-1.552;2023-05-10T02:45:05;10.30;;;2.80;;
78995;SDS011;68401;47.192;-1.552;2023-05-10T02:47:33;10.60;;;3.30;;
78995;SDS011;68401;47.192;-1.552;2023-05-10T02:49:59;19.42;;;3.80;;
78995;SDS011;68401;47.192;-1.552;2023-05-10T02:52:25;22.20;;;3.75;;
78995;SDS011;68401;47.192;-1.552;2023-05-10T02:54:54;11.30;;;3.55;;
78995;SDS011;68401;47.192;-1.552;2023-05-10T02:57:22;15.57;;;3.72;;
78995;SDS011;68401;47.192;-1.552;2023-05-10T02:59:51;10.95;;;3.78;;
78995;SDS011;68401;47.192;-1.552;2023-05-10T03:02:17;14.98;;;3.70;;
78995;SDS011;68401;47.192;-1.552;2023-05-10T03:04:42;11.07;;;3.13;;
78995;SDS011;68401;47.192;-1.552;2023-05-10T03:07:07;12.50;;;3.25;;
78995;SDS011;68401;47.192;-1.552;2023-05-10T03:09:33;13.57;;;3.28;;
78995;SDS011;68401;47.192;-1.552;2023-05-10T03:15:15;13.18;;;3.35;;
78995;SDS011;68401;47.192;-1.552;2023-05-10T03:20:22;13.98;;;4.00;;
78995;SDS011;68401;47.192;-1.552;2023-05-10T03:23:07;13.32;;;4.55;;
78995;SDS011;68401;47.192;-1.552;2023-05-10T03:28:02;14.83;;;3.53;;
78995;SDS011;68401;47.192;-1.552;2023-05-10T03:30:29;18.25;;;4.32;;
78995;SDS011;68401;47.192;-1.552;2023-05-10T03:32:55;13.85;;;3.20;;
78995;SDS011;68401;47.192;-1.552;2023-05-10T03:35:21;14.20;;;3.72;;
78995;SDS011;68401;47.192;-1.552;2023-05-10T03:37:47;19.55;;;5.03;;
78995;SDS011;68401;47.192;-1.552;2023-05-10T03:40:12;16.55;;;3.40;;
78995;SDS011;68401;47.192;-1.552;2023-05-10T03:42:38;12.35;;;3.45;;
78995;SDS011;68401;47.192;-1.552;2023-05-10T03:45:03;12.25;;;3.67;;
78995;SDS011;68401;47.192;-1.552;2023-05-10T03:47:29;13.93;;;3.35;;
78995;SDS011;68401;47.192;-1.552;2023-05-10T03:49:55;19.70;;;3.45;;
78995;SDS011;68401;47.192;-1.552;2023-05-10T03:52:20;19.65;;;4.60;;
78995;SDS011;68401;47.192;-1.552;2023-05-10T03:54:45;13.57;;;3.25;;
78995;SDS011;68401;47.192;-1.552;2023-05-10T03:57:11;11.15;;;2.90;;
78995;SDS011;68401;47.192;-1.552;2023-05-10T03:59:36;13.85;;;3.78;;
78995;SDS011;68401;47.192;-1.552;2023-05-10T04:02:02;13.85;;;3.90;;
78995;SDS011;68401;47.192;-1.552;2023-05-10T04:04:27;14.55;;;3.33;;
78995;SDS011;68401;47.192;-1.552;2023-05-10T04:06:53;15.13;;;2.88;;
78995;SDS011;68401;47.192;-1.552;2023-05-10T04:09:18;12.38;;;3.35;;
78995;SDS011;68401;47.192;-1.552;2023-05-10T04:11:44;9.73;;;2.80;;
78995;SDS011;68401;47.192;-1.552;2023-05-10T04:14:09;11.40;;;3.42;;
78995;SDS011;68401;47.192;-1.552;2023-05-10T04:16:35;15.02;;;2.92;;
78995;SDS011;68401;47.192;-1.552;2023-05-10T04:19:00;12.77;;;3.15;;
78995;SDS011;68401;47.192;-1.552;2023-05-10T04:21:25;15.77;;;3.30;;
78995;SDS011;68401;47.192;-1.552;2023-05-10T04:23:51;14.35;;;3.88;;
78995;SDS011;68401;47.192;-1.552;2023-05-10T04:26:16;18.58;;;3.65;;
78995;SDS011;68401;47.192;-1.552;2023-05-10T04:28:42;13.93;;;3.47;;
78995;SDS011;68401;47.192;-1.552;2023-05-10T04:31:08;10.68;;;3.40;;
78995;SDS011;68401;47.192;-1.552;2023-05-10T04:33:34;14.45;;;2.90;;
78995;SDS011;68401;47.192;-1.552;2023-05-10T04:36:00;11.82;;;4.30;;
78995;SDS011;68401;47.192;-1.552;2023-05-10T04:38:26;20.13;;;8.82;;
78995;SDS011;68401;47.192;-1.552;2023-05-10T04:40:51;19.08;;;5.82;;
78995;SDS011;68401;47.192;-1.552;2023-05-10T04:43:17;13.05;;;3.88;;
78995;SDS011;68401;47.192;-1.552;2023-05-10T04:45:43;13.73;;;5.03;;
78995;SDS011;68401;47.192;-1.552;2023-05-10T04:48:08;20.25;;;6.43;;
78995;SDS011;68401;47.192;-1.552;2023-05-10T04:50:34;12.48;;;10.60;;
78995;SDS011;68401;47.192;-1.552;2023-05-10T04:52:59;19.42;;;7.22;;
78995;SDS011;68401;47.192;-1.552;2023-05-10T04:55:25;10.98;;;3.97;;
78995;SDS011;68401;47.192;-1.552;2023-05-10T04:57:51;17.20;;;7.57;;
78995;SDS011;68401;47.192;-1.552;2023-05-10T05:00:17;14.68;;;5.47;;
78995;SDS011;68401;47.192;-1.552;2023-05-10T05:02:43;12.82;;;6.30;;
78995;SDS011;68401;47.192;-1.552;2023-05-10T05:05:10;19.13;;;4.80;;
78995;SDS011;68401;47.192;-1.552;2023-05-10T05:07:36;18.42;;;4.53;;
78995;SDS011;68401;47.192;-1.552;2023-05-10T05:10:02;11.48;;;5.03;;
78995;SDS011;68401;47.192;-1.552;2023-05-10T05:12:28;13.65;;;3.75;;
78995;SDS011;68401;47.192;-1.552;2023-05-10T05:14:53;14.60;;;4.55;;
78995;SDS011;68401;47.192;-1.552;2023-05-10T05:17:18;13.23;;;3.58;;
78995;SDS011;68401;47.192;-1.552;2023-05-10T05:19:44;13.18;;;5.72;;
78995;SDS011;68401;47.192;-1.552;2023-05-10T05:22:09;16.42;;;5.20;;
78995;SDS011;68401;47.192;-1.552;2023-05-10T05:24:35;12.70;;;5.50;;
78995;SDS011;68401;47.192;-1.552;2023-05-10T05:27:04;10.95;;;3.72;;
78995;SDS011;68401;47.192;-1.552;2023-05-10T05:29:29;11.65;;;4.00;;
78995;SDS011;68401;47.192;-1.552;2023-05-10T05:31:55;15.52;;;5.07;;
78995;SDS011;68401;47.192;-1.552;2023-05-10T05:34:20;16.63;;;5.03;;
78995;SDS011;68401;47.192;-1.552;2023-05-10T05:36:46;20.00;;;3.63;;
78995;SDS011;68401;47.192;-1.552;2023-05-10T05:39:12;11.27;;;3.58;;
78995;SDS011;68401;47.192;-1.552;2023-05-10T05:41:37;12.10;;;3.35;;
78995;SDS011;68401;47.192;-1.552;2023-05-10T05:44:03;16.85;;;3.85;;
78995;SDS011;68401;47.192;-1.552;2023-05-10T05:46:28;13.23;;;3.40;;
78995;SDS011;68401;47.192;-1.552;2023-05-10T05:48:54;15.40;;;3.33;;
78995;SDS011;68401;47.192;-1.552;2023-05-10T05:51:19;17.23;;;3.88;;
78995;SDS011;68401;47.192;-1.552;2023-05-10T05:53:45;11.02;;;3.30;;
78995;SDS011;68401;47.192;-1.552;2023-05-10T05:56:10;9.52;;;2.90;;
78995;SDS011;68401;47.192;-1.552;2023-05-10T05:58:35;15.93;;;5.32;;
78995;SDS011;68401;47.192;-1.552;2023-05-10T06:01:01;9.55;;;2.40;;
78995;SDS011;68401;47.192;-1.552;2023-05-10T06:03:26;14.30;;;3.80;;
78995;SDS011;68401;47.192;-1.552;2023-05-10T06:05:52;10.70;;;2.90;;
78995;SDS011;68401;47.192;-1.552;2023-05-10T06:08:17;12.40;;;3.80;;
78995;SDS011;68401;47.192;-1.552;2023-05-10T06:10:42;18.10;;;4.20;;
78995;SDS011;68401;47.192;-1.552;2023-05-10T06:13:09;15.32;;;4.13;;
78995;SDS011;68401;47.192;-1.552;2023-05-10T06:15:34;12.07;;;2.85;;
78995;SDS011;68401;47.192;-1.552;2023-05-10T06:18:00;11.65;;;2.92;;
78995;SDS011;68401;47.192;-1.552;2023-05-10T06:20:25;12.95;;;3.22;;
78995;SDS011;68401;47.192;-1.552;2023-05-10T06:22:51;14.93;;;3.47;;
78995;SDS011;68401;47.192;-1.552;2023-05-10T06:25:16;12.85;;;3.38;;
78995;SDS011;68401;47.192;-1.552;2023-05-10T06:27:43;10.07;;;2.53;;
78995;SDS011;68401;47.192;-1.552;2023-05-10T06:30:09;12.10;;;2.72;;
78995;SDS011;68401;47.192;-1.552;2023-05-10T06:32:35;12.65;;;3.05;;
78995;SDS011;68401;47.192;-1.552;2023-05-10T06:35:00;28.85;;;13.02;;
78995;SDS011;68401;47.192;-1.552;2023-05-10T06:37:25;9.85;;;3.75;;
78995;SDS011;68401;47.192;-1.552;2023-05-10T06:39:51;10.57;;;3.33;;
78995;SDS011;68401;47.192;-1.552;2023-05-10T06:42:17;17.75;;;5.68;;
78995;SDS011;68401;47.192;-1.552;2023-05-10T06:44:42;15.43;;;3.47;;
78995;SDS011;68401;47.192;-1.552;2023-05-10T06:47:08;12.38;;;3.22;;
78995;SDS011;68401;47.192;-1.552;2023-05-10T06:49:34;14.88;;;3.33;;
78995;SDS011;68401;47.192;-1.552;2023-05-10T06:51:59;17.45;;;3.80;;
78995;SDS011;68401;47.192;-1.552;2023-05-10T06:54:25;15.18;;;2.80;;
78995;SDS011;68401;47.192;-1.552;2023-05-10T06:56:50;12.00;;;3.00;;
78995;SDS011;68401;47.192;-1.552;2023-05-10T06:59:16;13.10;;;3.35;;
78995;SDS011;68401;47.192;-1.552;2023-05-10T07:01:41;10.13;;;3.00;;
78995;SDS011;68401;47.192;-1.552;2023-05-10T07:04:07;13.65;;;3.38;;
78995;SDS011;68401;47.192;-1.552;2023-05-10T07:06:33;8.52;;;3.45;;
78995;SDS011;68401;47.192;-1.552;2023-05-10T07:08:59;14.57;;;3.50;;
78995;SDS011;68401;47.192;-1.552;2023-05-10T07:11:25;12.68;;;3.17;;
78995;SDS011;68401;47.192;-1.552;2023-05-10T07:13:50;7.28;;;2.47;;
78995;SDS011;68401;47.192;-1.552;2023-05-10T07:16:16;10.48;;;2.90;;
78995;SDS011;68401;47.192;-1.552;2023-05-10T07:18:41;11.35;;;3.03;;
78995;SDS011;68401;47.192;-1.552;2023-05-10T07:21:06;11.35;;;3.15;;
78995;SDS011;68401;47.192;-1.552;2023-05-10T07:23:32;10.93;;;3.38;;
78995;SDS011;68401;47.192;-1.552;2023-05-10T07:25:57;8.60;;;2.75;;
78995;SDS011;68401;47.192;-1.552;2023-05-10T07:28:23;7.30;;;2.63;;
78995;SDS011;68401;47.192;-1.552;2023-05-10T07:30:51;9.45;;;2.83;;
78995;SDS011;68401;47.192;-1.552;2023-05-10T07:33:17;10.75;;;2.95;;
78995;SDS011;68401;47.192;-1.552;2023-05-10T07:35:42;9.38;;;2.72;;
78995;SDS011;68401;47.192;-1.552;2023-05-10T07:38:08;10.27;;;3.15;;
78995;SDS011;68401;47.192;-1.552;2023-05-10T07:40:33;8.52;;;2.60;;
78995;SDS011;68401;47.192;-1.552;2023-05-10T07:42:59;10.20;;;2.80;;
78995;SDS011;68401;47.192;-1.552;2023-05-10T07:45:27;9.20;;;2.33;;
78995;SDS011;68401;47.192;-1.552;2023-05-10T07:47:53;8.43;;;2.50;;
78995;SDS011;68401;47.192;-1.552;2023-05-10T07:50:18;8.20;;;2.35;;
78995;SDS011;68401;47.192;-1.552;2023-05-10T07:52:44;9.90;;;1.95;;
78995;SDS011;68401;47.192;-1.552;2023-05-10T07:55:10;8.18;;;2.45;;
78995;SDS011;68401;47.192;-1.552;2023-05-10T07:57:35;10.98;;;2.63;;
78995;SDS011;68401;47.192;-1.552;2023-05-10T08:00:01;8.20;;;2.45;;
78995;SDS011;68401;47.192;-1.552;2023-05-10T08:02:27;8.57;;;2.33;;
78995;SDS011;68401;47.192;-1.552;2023-05-10T08:04:53;5.32;;;2.00;;
78995;SDS011;68401;47.192;-1.552;2023-05-10T08:07:18;11.30;;;3.00;;
78995;SDS011;68401;47.192;-1.552;2023-05-10T08:09:44;5.60;;;2.30;;
78995;SDS011;68401;47.192;-1.552;2023-05-10T08:12:09;5.63;;;1.95;;
78995;SDS011;68401;47.192;-1.552;2023-05-10T08:14:35;8.30;;;2.47;;
78995;SDS011;68401;47.192;-1.552;2023-05-10T08:17:01;6.65;;;2.55;;
78995;SDS011;68401;47.192;-1.552;2023-05-10T08:19:28;8.55;;;2.10;;
78995;SDS011;68401;47.192;-1.552;2023-05-10T08:21:53;8.45;;;2.15;;
78995;SDS011;68401;47.192;-1.552;2023-05-10T08:24:20;9.70;;;2.33;;
78995;SDS011;68401;47.192;-1.552;2023-05-10T08:26:46;8.48;;;1.95;;
78995;SDS011;68401;47.192;-1.552;2023-05-10T08:29:12;8.65;;;2.45;;
78995;SDS011;68401;47.192;-1.552;2023-05-10T08:31:38;6.43;;;2.65;;
78995;SDS011;68401;47.192;-1.552;2023-05-10T08:34:03;8.85;;;2.53;;
78995;SDS011;68401;47.192;-1.552;2023-05-10T08:36:29;8.65;;;2.47;;
78995;SDS011;68401;47.192;-1.552;2023-05-10T08:38:54;8.77;;;2.83;;
78995;SDS011;68401;47.192;-1.552;2023-05-10T08:41:20;9.52;;;3.33;;
78995;SDS011;68401;47.192;-1.552;2023-05-10T08:43:46;6.63;;;2.13;;
78995;SDS011;68401;47.192;-1.552;2023-05-10T08:46:15;10.65;;;2.50;;
78995;SDS011;68401;47.192;-1.552;2023-05-10T08:48:42;11.95;;;2.55;;
78995;SDS011;68401;47.192;-1.552;2023-05-10T08:51:15;6.85;;;2.55;;
78995;SDS011;68401;47.192;-1.552;2023-05-10T08:53:43;9.23;;;3.05;;
78995;SDS011;68401;47.192;-1.552;2023-05-10T08:56:09;9.63;;;2.47;;
78995;SDS011;68401;47.192;-1.552;2023-05-10T08:58:35;7.72;;;2.30;;
78995;SDS011;68401;47.192;-1.552;2023-05-10T09:01:01;12.80;;;3.50;;
78995;SDS011;68401;47.192;-1.552;2023-05-10T09:03:28;6.60;;;2.33;;
78995;SDS011;68401;47.192;-1.552;2023-05-10T09:05:53;10.95;;;2.33;;
78995;SDS011;68401;47.192;-1.552;2023-05-10T09:08:20;11.52;;;2.08;;
78995;SDS011;68401;47.192;-1.552;2023-05-10T09:10:46;7.43;;;2.00;;
78995;SDS011;68401;47.192;-1.552;2023-05-10T09:13:13;7.10;;;2.30;;
78995;SDS011;68401;47.192;-1.552;2023-05-10T09:15:39;14.18;;;2.85;;
78995;SDS011;68401;47.192;-1.552;2023-05-10T09:18:04;8.05;;;2.03;;
78995;SDS011;68401;47.192;-1.552;2023-05-10T09:20:30;9.75;;;2.63;;
78995;SDS011;68401;47.192;-1.552;2023-05-10T09:22:56;10.95;;;2.75;;
78995;SDS011;68401;47.192;-1.552;2023-05-10T09:25:21;13.32;;;2.42;;
78995;SDS011;68401;47.192;-1.552;2023-05-10T09:27:47;8.57;;;2.10;;
78995;SDS011;68401;47.192;-1.552;2023-05-10T09:30:16;9.30;;;2.58;;
78995;SDS011;68401;47.192;-1.552;2023-05-10T09:32:47;10.15;;;2.60;;
78995;SDS011;68401;47.192;-1.552;2023-05-10T09:35:14;11.15;;;2.05;;
78995;SDS011;68401;47.192;-1.552;2023-05-10T09:37:46;8.85;;;2.38;;
78995;SDS011;68401;47.192;-1.552;2023-05-10T09:40:16;9.93;;;2.15;;
78995;SDS011;68401;47.192;-1.552;2023-05-10T09:42:43;9.93;;;2.00;;
78995;SDS011;68401;47.192;-1.552;2023-05-10T09:45:16;9.75;;;2.30;;
78995;SDS011;68401;47.192;-1.552;2023-05-10T09:47:42;8.45;;;2.42;;
78995;SDS011;68401;47.192;-1.552;2023-05-10T09:50:07;10.32;;;3.05;;
78995;SDS011;68401;47.192;-1.552;2023-05-10T09:55:19;10.60;;;2.53;;
78995;SDS011;68401;47.192;-1.552;2023-05-10T09:57:46;10.23;;;3.63;;
78995;SDS011;68401;47.192;-1.552;2023-05-10T10:00:17;9.10;;;3.15;;
78995;SDS011;68401;47.192;-1.552;2023-05-10T10:02:47;6.88;;;2.42;;
78995;SDS011;68401;47.192;-1.552;2023-05-10T10:05:13;10.95;;;2.40;;
78995;SDS011;68401;47.192;-1.552;2023-05-10T10:07:39;9.60;;;2.40;;
78995;SDS011;68401;47.192;-1.552;2023-05-10T10:10:05;12.43;;;3.30;;
78995;SDS011;68401;47.192;-1.552;2023-05-10T10:12:36;9.20;;;2.90;;
78995;SDS011;68401;47.192;-1.552;2023-05-10T10:15:02;8.90;;;2.60;;
78995;SDS011;68401;47.192;-1.552;2023-05-10T10:17:27;9.52;;;2.95;;
78995;SDS011;68401;47.192;-1.552;2023-05-10T10:19:53;9.98;;;2.80;;
78995;SDS011;68401;47.192;-1.552;2023-05-10T10:22:20;12.55;;;3.88;;
78995;SDS011;68401;47.192;-1.552;2023-05-10T10:24:45;9.52;;;2.70;;
78995;SDS011;68401;47.192;-1.552;2023-05-10T10:35:23;13.27;;;2.80;;
78995;SDS011;68401;47.192;-1.552;2023-05-10T10:37:49;37.38;;;22.38;;
78995;SDS011;68401;47.192;-1.552;2023-05-10T10:40:31;16.73;;;9.77;;
78995;SDS011;68401;47.192;-1.552;2023-05-10T10:42:58;9.02;;;3.75;;
78995;SDS011;68401;47.192;-1.552;2023-05-10T10:46:09;19.45;;;9.25;;
78995;SDS011;68401;47.192;-1.552;2023-05-10T10:48:36;8.48;;;3.90;;
78995;SDS011;68401;47.192;-1.552;2023-05-10T10:51:01;9.68;;;3.50;;
78995;SDS011;68401;47.192;-1.552;2023-05-10T10:53:28;11.77;;;3.05;;
78995;SDS011;68401;47.192;-1.552;2023-05-10T10:56:07;13.82;;;5.03;;
78995;SDS011;68401;47.192;-1.552;2023-05-10T10:58:34;13.32;;;5.95;;
78995;SDS011;68401;47.192;-1.552;2023-05-10T11:01:16;8.18;;;3.50;;
78995;SDS011;68401;47.192;-1.552;2023-05-10T11:06:29;6.70;;;2.80;;
78995;SDS011;68401;47.192;-1.552;2023-05-10T11:08:56;12.93;;;3.25;;
78995;SDS011;68401;47.192;-1.552;2023-05-10T11:11:22;8.05;;;2.17;;
78995;SDS011;68401;47.192;-1.552;2023-05-10T11:13:47;10.18;;;2.60;;
78995;SDS011;68401;47.192;-1.552;2023-05-10T11:21:28;3.58;;;1.65;;
78995;SDS011;68401;47.192;-1.552;2023-05-10T11:23:55;10.98;;;2.60;;
78995;SDS011;68401;47.192;-1.552;2023-05-10T11:26:25;8.30;;;2.15;;
78995;SDS011;68401;47.192;-1.552;2023-05-10T11:28:55;7.50;;;2.53;;
78995;SDS011;68401;47.192;-1.552;2023-05-10T11:34:27;10.35;;;4.07;;
78995;SDS011;68401;47.192;-1.552;2023-05-10T11:36:59;7.13;;;1.92;;
78995;SDS011;68401;47.192;-1.552;2023-05-10T11:39:29;13.05;;;2.40;;
78995;SDS011;68401;47.192;-1.552;2023-05-10T11:41:56;10.55;;;2.83;;
78995;SDS011;68401;47.192;-1.552;2023-05-10T11:44:22;9.25;;;2.97;;
78995;SDS011;68401;47.192;-1.552;2023-05-10T11:46:47;11.82;;;3.15;;
78995;SDS011;68401;47.192;-1.552;2023-05-10T11:49:13;8.23;;;2.40;;
78995;SDS011;68401;47.192;-1.552;2023-05-10T11:51:39;7.43;;;2.15;;
78995;SDS011;68401;47.192;-1.552;2023-05-10T11:54:05;9.68;;;2.08;;
78995;SDS011;68401;47.192;-1.552;2023-05-10T11:56:33;9.60;;;3.10;;
78995;SDS011;68401;47.192;-1.552;2023-05-10T11:58:59;7.53;;;1.83;;
78995;SDS011;68401;47.192;-1.552;2023-05-10T12:01:27;5.80;;;1.50;;
78995;SDS011;68401;47.192;-1.552;2023-05-10T12:03:53;5.55;;;1.98;;
78995;SDS011;68401;47.192;-1.552;2023-05-10T12:06:19;7.45;;;1.80;;
78995;SDS011;68401;47.192;-1.552;2023-05-10T12:08:46;4.35;;;1.52;;
78995;SDS011;68401;47.192;-1.552;2023-05-10T12:11:12;2.65;;;1.00;;
78995;SDS011;68401;47.192;-1.552;2023-05-10T12:13:41;2.95;;;1.42;;
78995;SDS011;68401;47.192;-1.552;2023-05-10T12:16:24;2.92;;;0.95;;
78995;SDS011;68401;47.192;-1.552;2023-05-10T12:18:51;1.90;;;0.82;;
78995;SDS011;68401;47.192;-1.552;2023-05-10T12:21:17;4.18;;;1.45;;
78995;SDS011;68401;47.192;-1.552;2023-05-10T12:23:44;2.85;;;1.13;;
78995;SDS011;68401;47.192;-1.552;2023-05-10T12:26:10;4.75;;;1.20;;
78995;SDS011;68401;47.192;-1.552;2023-05-10T12:28:36;1.95;;;0.85;;
78995;SDS011;68401;47.192;-1.552;2023-05-10T12:31:02;2.28;;;0.88;;
78995;SDS011;68401;47.192;-1.552;2023-05-10T12:33:35;3.60;;;1.10;;
78995;SDS011;68401;47.192;-1.552;2023-05-10T12:36:08;2.75;;;1.00;;
78995;SDS011;68401;47.192;-1.552;2023-05-10T12:38:35;2.83;;;1.27;;
78995;SDS011;68401;47.192;-1.552;2023-05-10T12:41:06;2.88;;;1.42;;
78995;SDS011;68401;47.192;-1.552;2023-05-10T12:43:35;4.05;;;1.30;;
78995;SDS011;68401;47.192;-1.552;2023-05-10T12:46:14;3.70;;;1.60;;
78995;SDS011;68401;47.192;-1.552;2023-05-10T12:48:41;2.60;;;1.10;;
78995;SDS011;68401;47.192;-1.552;2023-05-10T12:51:07;2.97;;;1.25;;
78995;SDS011;68401;47.192;-1.552;2023-05-10T12:53:41;4.82;;;1.65;;
78995;SDS011;68401;47.192;-1.552;2023-05-10T12:56:06;3.85;;;1.40;;
78995;SDS011;68401;47.192;-1.552;2023-05-10T12:58:32;3.85;;;1.38;;
78995;SDS011;68401;47.192;-1.552;2023-05-10T13:00:58;3.35;;;1.20;;
78995;SDS011;68401;47.192;-1.552;2023-05-10T13:03:23;3.65;;;1.30;;
78995;SDS011;68401;47.192;-1.552;2023-05-10T13:05:49;6.45;;;1.40;;
78995;SDS011;68401;47.192;-1.552;2023-05-10T13:08:14;6.45;;;1.40;;
78995;SDS011;68401;47.192;-1.552;2023-05-10T13:10:40;4.93;;;1.90;;
78995;SDS011;68401;47.192;-1.552;2023-05-10T13:13:05;5.00;;;1.33;;
78995;SDS011;68401;47.192;-1.552;2023-05-10T13:15:31;4.50;;;1.50;;
78995;SDS011;68401;47.192;-1.552;2023-05-10T13:17:56;4.90;;;1.40;;
78995;SDS011;68401;47.192;-1.552;2023-05-10T13:20:22;4.50;;;1.70;;
78995;SDS011;68401;47.192;-1.552;2023-05-10T13:22:47;4.22;;;2.28;;
78995;SDS011;68401;47.192;-1.552;2023-05-10T13:25:13;5.70;;;2.15;;
78995;SDS011;68401;47.192;-1.552;2023-05-10T13:27:39;5.32;;;1.67;;
78995;SDS011;68401;47.192;-1.552;2023-05-10T13:30:04;9.60;;;1.85;;
78995;SDS011;68401;47.192;-1.552;2023-05-10T13:34:58;7.15;;;1.90;;
78995;SDS011;68401;47.192;-1.552;2023-05-10T13:37:23;7.55;;;2.08;;
78995;SDS011;68401;47.192;-1.552;2023-05-10T13:39:49;6.68;;;1.50;;
78995;SDS011;68401;47.192;-1.552;2023-05-10T13:42:14;6.78;;;1.90;;
78995;SDS011;68401;47.192;-1.552;2023-05-10T13:44:40;6.18;;;2.50;;
78995;SDS011;68401;47.192;-1.552;2023-05-10T13:47:06;5.47;;;1.52;;
78995;SDS011;68401;47.192;-1.552;2023-05-10T13:49:31;9.35;;;1.98;;
78995;SDS011;68401;47.192;-1.552;2023-05-10T13:51:57;8.48;;;2.45;;
78995;SDS011;68401;47.192;-1.552;2023-05-10T13:54:23;8.65;;;2.22;;
78995;SDS011;68401;47.192;-1.552;2023-05-10T13:56:49;6.47;;;1.75;;
78995;SDS011;68401;47.192;-1.552;2023-05-10T13:59:14;4.47;;;1.50;;
78995;SDS011;68401;47.192;-1.552;2023-05-10T14:01:40;6.28;;;1.77;;
78995;SDS011;68401;47.192;-1.552;2023-05-10T14:04:06;8.38;;;2.15;;
78995;SDS011;68401;47.192;-1.552;2023-05-10T14:06:35;8.05;;;2.63;;
78995;SDS011;68401;47.192;-1.552;2023-05-10T14:09:01;8.55;;;2.20;;
78995;SDS011;68401;47.192;-1.552;2023-05-10T14:11:27;5.38;;;2.03;;
78995;SDS011;68401;47.192;-1.552;2023-05-10T14:13:52;3.95;;;1.30;;
78995;SDS011;68401;47.192;-1.552;2023-05-10T14:16:18;2.10;;;1.02;;
78995;SDS011;68401;47.192;-1.552;2023-05-10T14:18:44;3.72;;;1.00;;
78995;SDS011;68401;47.192;-1.552;2023-05-10T14:21:09;3.13;;;1.27;;
78995;SDS011;68401;47.192;-1.552;2023-05-10T14:23:35;1.08;;;0.80;;
78995;SDS011;68401;47.192;-1.552;2023-05-10T14:26:00;3.78;;;1.20;;
78995;SDS011;68401;47.192;-1.552;2023-05-10T14:28:26;6.90;;;1.52;;
78995;SDS011;68401;47.192;-1.552;2023-05-10T14:30:52;4.35;;;1.90;;
78995;SDS011;68401;47.192;-1.552;2023-05-10T14:33:17;4.47;;;1.17;;
78995;SDS011;68401;47.192;-1.552;2023-05-10T14:35:43;5.60;;;1.92;;
78995;SDS011;68401;47.192;-1.552;2023-05-10T14:38:10;4.57;;;1.67;;
78995;SDS011;68401;47.192;-1.552;2023-05-10T14:40:36;8.18;;;1.98;;
78995;SDS011;68401;47.192;-1.552;2023-05-10T14:43:01;4.80;;;1.52;;
78995;SDS011;68401;47.192;-1.552;2023-05-10T14:45:26;5.75;;;1.73;;
78995;SDS011;68401;47.192;-1.552;2023-05-10T14:47:52;5.95;;;1.92;;
78995;SDS011;68401;47.192;-1.552;2023-05-10T14:50:17;3.72;;;1.48;;
78995;SDS011;68401;47.192;-1.552;2023-05-10T14:52:44;4.90;;;1.65;;
78995;SDS011;68401;47.192;-1.552;2023-05-10T14:55:09;4.80;;;1.45;;
78995;SDS011;68401;47.192;-1.552;2023-05-10T14:57:35;6.60;;;1.83;;
78995;SDS011;68401;47.192;-1.552;2023-05-10T15:00:01;7.25;;;2.50;;
78995;SDS011;68401;47.192;-1.552;2023-05-10T15:02:27;3.70;;;1.80;;
78995;SDS011;68401;47.192;-1.552;2023-05-10T15:04:53;5.88;;;2.35;;
78995;SDS011;68401;47.192;-1.552;2023-05-10T15:07:18;4.72;;;1.85;;
78995;SDS011;68401;47.192;-1.552;2023-05-10T15:09:44;8.63;;;2.13;;
78995;SDS011;68401;47.192;-1.552;2023-05-10T15:12:09;8.75;;;1.92;;